createdAt,value
2018-05-13T00:01:59.563Z,30.03
2018-05-13T00:04:27.064Z,33.43
2018-05-13T00:06:54.611Z,34.30
2018-05-13T00:09:22.070Z,36.07
2018-05-13T00:11:49.530Z,34.80
2018-05-13T00:14:17.004Z,38.40
2018-05-13T00:16:44.575Z,36.90
2018-05-13T00:19:12.124Z,35.00
2018-05-13T00:21:39.583Z,40.90
2018-05-13T00:24:07.038Z,29.10
2018-05-13T00:26:34.506Z,32.97
2018-05-13T00:29:01.946Z,38.10
2018-05-13T00:31:29.422Z,33.33
2018-05-13T00:33:56.866Z,40.10
2018-05-13T00:36:24.346Z,34.80
2018-05-13T00:38:51.795Z,42.37
2018-05-13T00:41:19.293Z,41.93
2018-05-13T00:43:46.730Z,31.80
2018-05-13T00:46:14.183Z,39.57
2018-05-13T00:48:41.655Z,36.30
2018-05-13T00:51:09.121Z,41.30
2018-05-13T00:53:36.575Z,42.40
2018-05-13T00:56:04.042Z,40.30
2018-05-13T00:58:31.507Z,35.43
2018-05-13T01:00:59.099Z,40.57
2018-05-13T01:03:26.543Z,33.83
2018-05-13T01:05:54.031Z,44.47
2018-05-13T01:08:22.317Z,45.07
2018-05-13T01:10:50.547Z,43.10
2018-05-13T01:13:18.019Z,36.57
2018-05-13T01:15:45.583Z,32.23
2018-05-13T01:18:13.023Z,44.60
2018-05-13T01:20:40.499Z,44.93
2018-05-13T01:23:07.958Z,37.40
2018-05-13T01:25:35.482Z,32.30
2018-05-13T01:28:02.922Z,45.13
2018-05-13T01:30:31.158Z,32.87
2018-05-13T01:32:58.615Z,39.97
2018-05-13T01:35:26.086Z,45.43
2018-05-13T01:37:53.562Z,31.77
2018-05-13T01:40:21.003Z,47.67
2018-05-13T01:42:48.538Z,33.90
2018-05-13T01:45:16.039Z,42.80
2018-05-13T01:47:43.482Z,45.37
2018-05-13T01:50:10.959Z,30.20
2018-05-13T01:52:38.430Z,40.67
2018-05-13T01:55:05.875Z,44.63
2018-05-13T01:57:33.380Z,39.93
2018-05-13T02:00:00.820Z,55.30
2018-05-13T02:02:29.090Z,48.30
2018-05-13T02:04:56.538Z,37.13
2018-05-13T02:07:23.994Z,48.33
2018-05-13T02:09:51.439Z,42.37
2018-05-13T02:12:18.894Z,41.73
2018-05-13T02:14:46.339Z,51.47
2018-05-13T02:17:14.659Z,47.73
2018-05-13T02:19:42.098Z,47.97
2018-05-13T02:22:09.558Z,48.30
2018-05-13T02:24:37.003Z,49.57
2018-05-13T02:27:05.231Z,50.90
2018-05-13T02:29:32.694Z,50.57
2018-05-13T02:32:00.150Z,25.80
2018-05-13T02:34:27.595Z,47.60
2018-05-13T02:36:55.052Z,33.37
2018-05-13T02:39:22.495Z,41.83
2018-05-13T02:41:50.004Z,36.93
2018-05-13T02:44:17.451Z,56.83
2018-05-13T02:46:44.895Z,43.77
2018-05-13T02:49:12.339Z,45.50
2018-05-13T02:51:40.563Z,36.93
2018-05-13T02:54:08.022Z,35.83
2018-05-13T02:56:35.483Z,46.13
2018-05-13T02:59:02.927Z,49.17
2018-05-13T03:01:30.380Z,34.73
2018-05-13T03:03:57.871Z,50.10
2018-05-13T03:06:25.348Z,48.67
2018-05-13T03:08:52.784Z,45.07
2018-05-13T03:11:20.250Z,51.00
2018-05-13T03:13:47.698Z,54.17
2018-05-13T03:16:15.152Z,51.93
2018-05-13T03:18:42.639Z,56.87
2018-05-13T03:21:10.106Z,49.27
2018-05-13T03:23:37.563Z,52.93
2018-05-13T03:26:05.012Z,56.13
2018-05-13T03:28:32.455Z,53.27
2018-05-13T03:30:59.905Z,53.77
2018-05-13T03:33:27.349Z,52.70
2018-05-13T03:35:55.593Z,49.70
2018-05-13T03:38:23.070Z,51.40
2018-05-13T03:40:50.514Z,53.40
2018-05-13T03:43:17.972Z,51.07
2018-05-13T03:45:45.434Z,40.10
2018-05-13T03:48:12.887Z,50.10
2018-05-13T03:50:40.328Z,46.60
2018-05-13T03:53:07.803Z,49.10
2018-05-13T03:55:35.378Z,51.90
2018-05-13T03:58:02.822Z,55.37
2018-05-13T04:00:30.307Z,37.30
2018-05-13T04:02:57.767Z,50.00
2018-05-13T04:05:25.210Z,58.40
2018-05-13T04:11:17.508Z,52.83
2018-05-13T04:13:57.710Z,51.97
2018-05-13T04:16:25.213Z,59.43
2018-05-13T04:18:52.609Z,55.00
2018-05-13T04:21:20.090Z,60.03
2018-05-13T04:23:47.559Z,51.67
2018-05-13T04:26:15.020Z,56.93
2018-05-13T04:28:42.466Z,43.90
2018-05-13T04:31:09.906Z,54.20
2018-05-13T04:33:37.399Z,58.40
2018-05-13T04:36:04.842Z,52.00
2018-05-13T04:38:32.320Z,56.77
2018-05-13T04:40:59.768Z,54.70
2018-05-13T04:43:27.219Z,58.90
2018-05-13T04:45:54.664Z,58.53
2018-05-13T04:48:22.242Z,38.80
2018-05-13T04:50:49.685Z,51.73
2018-05-13T04:53:17.901Z,48.03
2018-05-13T04:55:45.371Z,44.27
2018-05-13T04:58:12.934Z,50.50
2018-05-13T05:00:40.394Z,52.70
2018-05-13T05:03:08.545Z,42.30
2018-05-13T05:05:35.981Z,41.97
2018-05-13T05:08:04.214Z,36.83
2018-05-13T05:10:31.659Z,52.67
2018-05-13T05:12:59.106Z,57.70
2018-05-13T05:15:26.552Z,51.57
2018-05-13T05:17:54.003Z,36.97
2018-05-13T05:20:22.210Z,48.63
2018-05-13T05:22:49.768Z,44.53
2018-05-13T05:25:17.270Z,46.63
2018-05-13T05:27:44.748Z,39.37
2018-05-13T05:30:12.159Z,31.67
2018-05-13T05:32:39.623Z,51.70
2018-05-13T05:35:07.078Z,49.90
2018-05-13T05:37:34.562Z,51.83
2018-05-13T05:40:02.027Z,45.47
2018-05-13T05:42:29.491Z,50.67
2018-05-13T05:44:56.951Z,52.67
2018-05-13T05:47:24.426Z,42.00
2018-05-13T05:49:51.863Z,51.90
2018-05-13T05:52:19.442Z,57.43
2018-05-13T05:54:46.917Z,57.73
2018-05-13T05:57:14.462Z,49.90
2018-05-13T05:59:41.931Z,56.47
2018-05-13T06:02:09.399Z,57.03
2018-05-13T06:04:36.852Z,57.87
2018-05-13T06:07:04.293Z,59.47
2018-05-13T06:09:31.755Z,51.33
2018-05-13T06:11:59.239Z,55.80
2018-05-13T06:14:26.798Z,54.00
2018-05-13T06:16:54.251Z,59.83
2018-05-13T06:19:21.713Z,55.47
2018-05-13T06:21:49.182Z,54.37
2018-05-13T06:24:16.643Z,54.70
2018-05-13T06:26:44.129Z,52.90
2018-05-13T06:29:11.668Z,53.23
2018-05-13T06:31:39.127Z,42.53
2018-05-13T06:34:06.591Z,53.73
2018-05-13T06:36:34.047Z,40.30
2018-05-13T06:39:01.513Z,49.83
2018-05-13T06:41:28.960Z,41.73
2018-05-13T06:43:56.406Z,44.30
2018-05-13T06:46:23.850Z,42.57
2018-05-13T06:48:52.067Z,42.20
2018-05-13T06:51:19.653Z,39.50
2018-05-13T06:53:46.982Z,34.30
2018-05-13T06:56:14.463Z,31.50
2018-05-13T06:58:42.026Z,30.33
2018-05-13T07:01:09.475Z,31.63
2018-05-13T07:03:36.928Z,21.30
2018-05-13T07:06:04.383Z,28.97
2018-05-13T07:08:31.866Z,26.53
2018-05-13T07:10:59.318Z,23.80
2018-05-13T07:13:26.795Z,22.23
2018-05-13T07:15:54.358Z,21.13
2018-05-13T07:18:21.803Z,19.73
2018-05-13T07:20:49.275Z,26.33
2018-05-13T07:23:16.719Z,20.70
2018-05-13T07:25:44.165Z,21.43
2018-05-13T07:28:11.672Z,25.47
2018-05-13T07:30:39.198Z,26.70
2018-05-13T07:33:06.892Z,20.67
2018-05-13T07:35:34.359Z,21.47
2018-05-13T07:38:01.830Z,21.80
2018-05-13T07:40:29.389Z,23.60
2018-05-13T07:42:56.845Z,22.13
2018-05-13T07:45:24.291Z,25.43
2018-05-13T07:47:51.737Z,22.07
2018-05-13T07:50:19.195Z,25.63
2018-05-13T07:52:46.632Z,22.70
2018-05-13T07:55:14.938Z,22.47
2018-05-13T07:57:42.373Z,24.30
2018-05-13T08:00:10.578Z,25.23
2018-05-13T08:02:38.032Z,24.30
2018-05-13T08:05:05.483Z,25.37
2018-05-13T08:07:32.938Z,25.17
2018-05-13T08:10:01.183Z,19.47
2018-05-13T08:12:28.640Z,20.40
2018-05-13T08:14:56.186Z,23.40
2018-05-13T08:17:23.642Z,29.10
2018-05-13T08:19:51.119Z,22.63
2018-05-13T08:22:18.569Z,19.90
2018-05-13T08:24:46.027Z,26.13
2018-05-13T08:27:13.472Z,24.27
2018-05-13T08:29:40.958Z,26.90
2018-05-13T08:32:08.425Z,20.93
2018-05-13T08:34:35.891Z,23.27
2018-05-13T08:37:03.346Z,27.83
2018-05-13T08:39:30.795Z,21.73
2018-05-13T08:41:58.337Z,26.77
2018-05-13T08:44:25.714Z,29.47
2018-05-13T08:46:53.200Z,22.60
2018-05-13T08:49:20.654Z,28.30
2018-05-13T08:51:48.228Z,23.70
2018-05-13T08:54:15.779Z,29.03
2018-05-13T08:56:43.243Z,29.27
2018-05-13T08:59:10.711Z,25.23
2018-05-13T09:01:38.180Z,23.87
2018-05-13T09:04:05.635Z,29.00
2018-05-13T09:06:33.186Z,32.90
2018-05-13T09:09:00.630Z,29.50
2018-05-13T09:11:28.190Z,30.53
2018-05-13T09:13:55.623Z,24.77
2018-05-13T09:16:23.837Z,35.87
2018-05-13T09:18:51.319Z,30.33
2018-05-13T09:21:18.888Z,32.07
2018-05-13T09:23:46.343Z,31.07
2018-05-13T09:26:13.806Z,33.63
2018-05-13T09:31:15.129Z,35.40
2018-05-13T09:33:42.630Z,36.63
2018-05-13T09:36:10.102Z,39.37
2018-05-13T09:38:37.546Z,36.10
2018-05-13T09:41:05.005Z,39.73
2018-05-13T09:43:32.487Z,50.97
2018-05-13T09:45:59.940Z,43.80
2018-05-13T09:48:27.382Z,46.30
2018-05-13T09:50:54.826Z,46.57
2018-05-13T09:53:22.296Z,50.50
2018-05-13T09:55:49.738Z,54.90
2018-05-13T09:58:17.952Z,55.58
2018-05-13T10:00:45.389Z,43.70
2018-05-13T10:03:12.840Z,58.03
2018-05-13T10:05:41.069Z,61.50
2018-05-13T10:08:08.608Z,60.37
2018-05-13T10:10:36.119Z,58.83
2018-05-13T10:13:03.571Z,59.03
2018-05-13T10:15:31.035Z,57.53
2018-05-13T10:17:58.491Z,57.63
2018-05-13T10:20:25.935Z,65.40
2018-05-13T10:22:53.399Z,41.60
2018-05-13T10:25:20.850Z,59.87
2018-05-13T10:27:48.323Z,61.53
2018-05-13T10:30:15.772Z,61.73
2018-05-13T10:32:43.235Z,51.27
2018-05-13T10:35:10.665Z,48.50
2018-05-13T10:37:38.171Z,61.13
2018-05-13T10:40:05.615Z,57.27
2018-05-13T10:42:33.154Z,54.43
2018-05-13T10:45:00.516Z,55.10
2018-05-13T10:47:28.010Z,56.40
2018-05-13T10:49:55.460Z,55.73
2018-05-13T10:52:22.910Z,60.10
2018-05-13T10:54:50.418Z,59.97
2018-05-13T10:57:17.870Z,54.53
2018-05-13T10:59:45.427Z,65.27
2018-05-13T11:02:12.886Z,54.60
2018-05-13T11:04:40.416Z,50.17
2018-05-13T11:07:07.819Z,54.37
2018-05-13T11:09:35.371Z,59.50
2018-05-13T11:12:02.842Z,48.60
2018-05-13T11:14:30.298Z,55.00
2018-05-13T11:16:57.767Z,61.03
2018-05-13T11:19:25.190Z,64.40
2018-05-13T11:21:52.663Z,61.37
2018-05-13T11:24:20.102Z,61.50
2018-05-13T11:26:47.576Z,56.97
2018-05-13T11:29:14.994Z,66.13
2018-05-13T11:31:42.455Z,60.70
2018-05-13T11:34:09.885Z,57.47
2018-05-13T11:36:37.537Z,47.70
2018-05-13T11:39:05.565Z,52.17
2018-05-13T11:41:33.810Z,52.20
2018-05-13T11:44:01.267Z,57.47
2018-05-13T11:46:28.738Z,56.87
2018-05-13T11:48:56.204Z,63.60
2018-05-13T11:51:23.687Z,62.37
2018-05-13T11:53:51.927Z,68.40
2018-05-13T11:56:19.369Z,40.07
2018-05-13T11:58:46.834Z,66.00
2018-05-13T12:01:14.283Z,55.90
2018-05-13T12:03:41.750Z,59.97
2018-05-13T12:06:09.920Z,59.83
2018-05-13T12:08:37.383Z,77.70
2018-05-13T12:11:04.827Z,68.90
2018-05-13T12:13:32.335Z,73.23
2018-05-13T12:15:59.794Z,44.23
2018-05-13T12:18:27.254Z,71.10
2018-05-13T12:20:54.703Z,68.37
2018-05-13T12:23:22.259Z,66.43
2018-05-13T12:25:49.691Z,68.83
2018-05-13T12:28:17.927Z,74.30
2018-05-13T12:30:45.387Z,37.40
2018-05-13T12:33:12.835Z,66.10
2018-05-13T12:35:40.279Z,67.90
2018-05-13T12:38:07.852Z,63.13
2018-05-13T12:40:35.219Z,62.10
2018-05-13T12:43:02.677Z,51.07
2018-05-13T12:45:30.115Z,62.03
2018-05-13T12:47:57.566Z,39.13
2018-05-13T12:50:25.019Z,66.67
2018-05-13T12:52:53.255Z,38.00
2018-05-13T12:55:20.723Z,50.40
2018-05-13T12:57:48.182Z,67.73
2018-05-13T13:00:15.639Z,50.97
2018-05-13T13:02:43.107Z,71.83
2018-05-13T13:05:10.658Z,57.43
2018-05-13T13:07:38.163Z,37.23
2018-05-13T13:10:05.573Z,44.30
2018-05-13T13:12:33.031Z,56.53
2018-05-13T13:15:00.478Z,63.90
2018-05-13T13:17:27.993Z,71.50
2018-05-13T13:19:55.616Z,57.43
2018-05-13T13:22:22.991Z,69.13
2018-05-13T13:24:50.475Z,45.50
2018-05-13T13:27:17.906Z,70.77
2018-05-13T13:29:45.367Z,69.07
2018-05-13T13:32:12.807Z,62.80
2018-05-13T13:34:40.319Z,71.90
2018-05-13T13:37:07.863Z,69.90
2018-05-13T13:39:35.323Z,72.90
2018-05-13T13:42:02.771Z,66.53
2018-05-13T13:44:30.227Z,38.03
2018-05-13T13:46:57.683Z,81.43
2018-05-13T13:49:25.134Z,43.03
2018-05-13T13:51:52.575Z,70.90
2018-05-13T13:54:20.823Z,61.93
2018-05-13T13:56:48.286Z,65.83
2018-05-13T13:59:15.735Z,66.30
2018-05-13T14:01:43.212Z,80.23
2018-05-13T14:04:11.562Z,75.43
2018-05-13T14:06:39.012Z,67.30
2018-05-13T14:09:06.462Z,73.93
2018-05-13T14:11:33.964Z,62.27
2018-05-13T14:14:01.440Z,72.40
2018-05-13T14:16:28.883Z,79.87
2018-05-13T14:18:56.335Z,74.70
2018-05-13T14:21:23.791Z,74.77
2018-05-13T14:23:51.359Z,80.30
2018-05-13T14:26:18.794Z,75.80
2018-05-13T14:28:46.295Z,66.07
2018-05-13T14:31:13.751Z,66.40
2018-05-13T14:33:41.214Z,76.23
2018-05-13T14:36:08.658Z,63.60
2018-05-13T14:38:36.537Z,70.53
2018-05-13T14:41:04.168Z,43.57
2018-05-13T14:43:31.649Z,70.80
2018-05-13T14:45:59.104Z,73.53
2018-05-13T14:48:26.562Z,74.27
2018-05-13T14:50:54.042Z,74.47
2018-05-13T14:53:21.501Z,45.63
2018-05-13T14:55:48.978Z,51.50
2018-05-13T14:58:16.439Z,62.30
2018-05-13T15:00:43.901Z,59.77
2018-05-13T15:03:11.368Z,78.90
2018-05-13T15:05:38.817Z,77.93
2018-05-13T15:08:06.306Z,79.23
2018-05-13T15:10:33.846Z,62.70
2018-05-13T15:13:01.291Z,73.83
2018-05-13T15:15:28.785Z,78.53
2018-05-13T15:17:56.234Z,62.33
2018-05-13T15:20:23.696Z,72.43
2018-05-13T15:22:51.131Z,73.00
2018-05-13T15:25:18.639Z,54.97
2018-05-13T15:27:46.971Z,70.70
2018-05-13T15:30:14.466Z,77.97
2018-05-13T15:32:41.906Z,79.67
2018-05-13T15:35:09.359Z,75.07
2018-05-13T15:37:36.903Z,67.73
2018-05-13T15:40:05.158Z,76.30
2018-05-13T15:42:32.664Z,68.87
2018-05-13T15:45:00.064Z,66.23
2018-05-13T15:47:27.518Z,71.63
2018-05-13T15:49:55.359Z,64.53
2018-05-13T15:52:22.860Z,64.17
2018-05-13T15:54:50.345Z,75.30
2018-05-13T15:57:17.758Z,72.73
2018-05-13T15:59:45.231Z,47.93
2018-05-13T16:02:12.684Z,78.47
2018-05-13T16:04:40.170Z,64.73
2018-05-13T16:07:09.511Z,72.80
2018-05-13T16:09:37.752Z,64.90
2018-05-13T16:12:05.208Z,66.10
2018-05-13T16:14:32.699Z,50.90
2018-05-13T16:17:01.405Z,67.90
2018-05-13T16:19:29.602Z,68.33
2018-05-13T16:21:57.167Z,65.30
2018-05-13T16:24:25.947Z,54.83
2018-05-13T16:26:53.389Z,62.50
2018-05-13T16:29:21.639Z,62.93
2018-05-13T16:31:49.075Z,63.50
2018-05-13T16:34:16.556Z,52.50
2018-05-13T16:36:44.025Z,62.47
2018-05-13T16:39:11.466Z,48.27
2018-05-13T16:41:38.941Z,40.97
2018-05-13T16:44:06.395Z,39.30
2018-05-13T16:46:33.871Z,50.23
2018-05-13T16:49:01.426Z,52.47
2018-05-13T16:51:28.897Z,61.10
2018-05-13T16:53:56.331Z,62.80
2018-05-13T16:56:23.805Z,58.43
2018-05-13T16:58:51.247Z,68.23
2018-05-13T17:01:18.979Z,46.97
2018-05-13T17:03:47.191Z,41.90
2018-05-13T17:06:14.876Z,53.60
2018-05-13T17:08:42.326Z,40.20
2018-05-13T17:11:09.768Z,56.77
2018-05-13T17:13:37.258Z,34.13
2018-05-13T17:16:04.731Z,59.17
2018-05-13T17:18:32.186Z,55.33
2018-05-13T17:20:59.644Z,54.03
2018-05-13T17:23:27.169Z,52.57
2018-05-13T17:25:54.597Z,31.93
2018-05-13T17:28:22.207Z,39.70
2018-05-13T17:30:49.669Z,50.73
2018-05-13T17:33:17.110Z,37.47
2018-05-13T17:35:45.415Z,49.60
2018-05-13T17:38:12.863Z,48.23
2018-05-13T17:40:46.707Z,49.03
2018-05-13T17:43:14.690Z,54.57
2018-05-13T17:45:42.135Z,59.70
2018-05-13T17:48:09.599Z,63.27
2018-05-13T17:50:37.162Z,47.13
2018-05-13T17:53:04.603Z,64.60
2018-05-13T17:55:32.059Z,47.33
2018-05-13T17:57:59.503Z,65.37
2018-05-13T18:00:26.956Z,46.47
2018-05-13T18:02:55.238Z,64.97
2018-05-13T18:05:22.611Z,57.67
2018-05-13T18:07:50.054Z,62.90
2018-05-13T18:10:18.378Z,61.33
2018-05-13T18:12:45.860Z,37.83
2018-05-13T18:15:13.363Z,45.77
2018-05-13T18:17:41.602Z,53.17
2018-05-13T18:20:09.086Z,63.17
2018-05-13T18:22:36.534Z,43.23
2018-05-13T18:25:03.974Z,43.83
2018-05-13T18:27:31.501Z,62.63
2018-05-13T18:29:59.707Z,60.70
2018-05-13T18:32:27.245Z,71.80
2018-05-13T18:34:54.718Z,61.53
2018-05-13T18:37:22.177Z,57.33
2018-05-13T18:39:49.627Z,36.93
2018-05-13T18:42:17.922Z,55.73
2018-05-13T18:44:45.416Z,62.30
2018-05-13T18:47:13.046Z,44.37
2018-05-13T18:49:40.466Z,54.40
2018-05-13T18:52:07.925Z,57.97
2018-05-13T18:54:35.469Z,32.43
2018-05-13T18:57:03.108Z,54.47
2018-05-13T18:59:30.539Z,52.77
2018-05-13T19:01:58.765Z,52.97
2018-05-13T19:04:26.303Z,51.00
2018-05-13T19:06:53.738Z,52.57
2018-05-13T19:09:21.963Z,52.27
2018-05-13T19:11:49.419Z,39.67
2018-05-13T19:14:16.873Z,34.00
2018-05-13T19:16:44.427Z,50.13
2018-05-13T19:19:11.910Z,37.73
2018-05-13T19:21:39.374Z,40.17
2018-05-13T19:24:06.938Z,50.53
2018-05-13T19:26:34.382Z,52.07
2018-05-13T19:29:01.862Z,50.23
2018-05-13T19:31:29.347Z,42.20
2018-05-13T19:33:56.774Z,61.13
2018-05-13T19:36:24.267Z,60.67
2018-05-13T19:38:51.711Z,55.03
2018-05-13T19:41:19.189Z,48.90
2018-05-13T19:43:46.635Z,36.80
2018-05-13T19:46:14.086Z,57.90
2018-05-13T19:48:41.682Z,54.93
2018-05-13T19:51:09.834Z,50.93
2018-05-13T19:53:37.370Z,43.97
2018-05-13T19:56:04.806Z,54.83
2018-05-13T19:58:33.112Z,53.13
2018-05-13T20:01:00.537Z,51.83
2018-05-13T20:03:29.010Z,44.07
2018-05-13T20:05:56.232Z,55.37
2018-05-13T20:08:23.694Z,53.53
2018-05-13T20:10:51.167Z,38.77
2018-05-13T20:13:18.714Z,56.33
2018-05-13T20:15:46.250Z,61.30
2018-05-13T20:18:14.466Z,68.73
2018-05-13T20:20:42.004Z,61.87
2018-05-13T20:23:21.571Z,64.03
2018-05-13T20:25:49.033Z,38.00
2018-05-13T20:28:16.483Z,43.27
2018-05-13T20:30:43.932Z,46.57
2018-05-13T20:33:11.423Z,60.47
2018-05-13T20:35:38.898Z,60.57
2018-05-13T20:38:06.358Z,60.73
2018-05-13T20:40:33.807Z,68.97
2018-05-13T20:43:01.266Z,60.00
2018-05-13T20:45:28.719Z,59.30
2018-05-13T20:47:56.174Z,59.20
2018-05-13T20:50:23.646Z,54.07
2018-05-13T20:52:51.206Z,70.03
2018-05-13T20:55:18.671Z,67.13
2018-05-13T20:57:46.135Z,54.13
2018-05-13T21:00:13.583Z,46.80
2018-05-13T21:02:41.038Z,65.03
2018-05-13T21:05:08.514Z,79.63
2018-05-13T21:07:35.969Z,74.23
2018-05-13T21:10:03.439Z,64.13
2018-05-13T21:12:30.898Z,73.60
2018-05-13T21:14:58.360Z,77.20
2018-05-13T21:17:25.818Z,71.80
2018-05-13T21:19:53.287Z,75.83
2018-05-13T21:22:20.747Z,59.97
2018-05-13T21:24:48.203Z,89.07
2018-05-13T21:27:15.656Z,85.10
2018-05-13T21:29:43.126Z,79.23
2018-05-13T21:32:10.598Z,89.83
2018-05-13T21:34:38.058Z,80.10
2018-05-13T21:37:05.590Z,87.63
2018-05-13T21:39:33.038Z,85.07
2018-05-13T21:42:00.481Z,83.10
2018-05-13T21:44:28.698Z,91.67
2018-05-13T21:46:56.139Z,84.60
2018-05-13T21:49:23.595Z,61.87
2018-05-13T21:51:51.107Z,84.27
2018-05-13T21:54:18.667Z,87.33
2018-05-13T21:56:46.124Z,92.07
2018-05-13T21:59:13.570Z,93.80
2018-05-13T22:01:41.055Z,57.90
2018-05-13T22:04:08.612Z,79.73
2018-05-13T22:06:36.147Z,87.10
2018-05-13T22:09:03.603Z,92.43
2018-05-13T22:11:31.048Z,95.07
2018-05-13T22:13:59.271Z,88.47
2018-05-13T22:16:26.717Z,87.67
2018-05-13T22:18:54.170Z,93.70
2018-05-13T22:21:21.605Z,61.37
2018-05-13T22:23:49.827Z,86.33
2018-05-13T22:26:17.298Z,97.90
2018-05-13T22:28:44.760Z,94.27
2018-05-13T22:31:12.211Z,87.17
2018-05-13T22:33:39.691Z,93.40
2018-05-13T22:36:07.167Z,79.27
2018-05-13T22:38:34.607Z,91.73
2018-05-13T22:41:02.082Z,97.70
2018-05-13T22:43:29.530Z,95.37
2018-05-13T22:45:56.974Z,92.47
2018-05-13T22:48:24.451Z,94.87
2018-05-13T22:50:51.889Z,95.53
2018-05-13T22:53:19.351Z,99.70
2018-05-13T22:55:46.834Z,82.30
2018-05-13T22:58:14.371Z,103.73
2018-05-13T23:00:41.746Z,82.67
2018-05-13T23:03:09.195Z,102.03
2018-05-13T23:05:36.663Z,78.00
2018-05-13T23:08:04.151Z,97.00
2018-05-13T23:10:31.604Z,96.57
2018-05-13T23:12:59.071Z,94.73
2018-05-13T23:15:26.506Z,93.13
2018-05-13T23:17:53.948Z,94.37
2018-05-13T23:20:21.506Z,95.67
2018-05-13T23:22:48.914Z,90.53
2018-05-13T23:25:16.410Z,66.17
2018-05-13T23:27:44.626Z,94.43
2018-05-13T23:30:12.122Z,75.33
2018-05-13T23:32:39.678Z,94.43
2018-05-13T23:35:07.138Z,88.27
2018-05-13T23:37:34.595Z,88.60
2018-05-13T23:40:02.140Z,95.27
2018-05-13T23:42:29.626Z,97.07
2018-05-13T23:44:57.084Z,111.00
2018-05-13T23:47:24.549Z,107.60
2018-05-13T23:49:52.042Z,108.63
2018-05-13T23:52:19.491Z,108.73
2018-05-13T23:54:48.486Z,106.83
2018-05-13T23:57:15.931Z,110.13
2018-05-13T23:59:43.388Z,111.00
